Time,TemperatureF,DewpointF,PressureIn,WindDirection,WindDirectionDegrees,WindSpeedMPH,WindSpeedGustMPH,Humidity,HourlyPrecipIn,Conditions,Clouds,dailyrainin,SoftwareType,DateUTC
2013-02-08 00:02:00,34.0,28.0,-100.00,SE,142,0.0,6.0,77,0.00,,,-99.99,,2013-02-08 05:02:00,
2013-02-08 00:12:00,35.0,30.0,-100.00,SW,223,0.0,6.0,78,0.00,,,-99.99,,2013-02-08 05:12:00,
2013-02-08 00:22:00,34.0,28.0,-100.00,SE,129,0.0,6.0,78,0.00,,,-99.99,,2013-02-08 05:22:00,
2013-02-08 00:32:00,34.0,30.0,-100.00,SW,228,0.0,6.0,80,0.00,,,-99.99,,2013-02-08 05:32:00,
2013-02-08 00:42:00,34.0,28.0,-100.00,North,0,0.0,6.0,78,0.00,,,-99.99,,2013-02-08 05:42:00,
2013-02-08 00:52:00,35.0,30.0,-100.00,West,265,0.0,6.0,80,0.00,,,-99.99,,2013-02-08 05:52:00,
2013-02-08 01:02:00,34.0,30.0,-100.00,SE,129,0.0,6.0,81,0.00,,,-99.99,,2013-02-08 06:02:00,
2013-02-08 01:11:00,34.0,30.0,-100.00,North,358,0.0,6.0,81,0.00,,,-99.99,,2013-02-08 06:11:00,
2013-02-08 01:22:00,35.0,30.0,-100.00,North,360,0.0,6.0,82,0.00,,,-99.99,,2013-02-08 06:22:00,
2013-02-08 01:32:00,35.0,30.0,-100.00,NNW,336,0.0,6.0,82,0.00,,,-99.99,,2013-02-08 06:32:00,
2013-02-08 01:42:00,35.0,30.0,-100.00,NNW,345,0.0,6.0,82,0.00,,,-99.99,,2013-02-08 06:42:00,
2013-02-08 01:52:00,36.0,32.0,-100.00,SW,228,1.0,6.0,81,0.00,,,-99.99,,2013-02-08 06:52:00,
2013-02-08 02:01:00,35.0,32.0,-100.00,WSW,258,0.0,6.0,82,0.00,,,-99.99,,2013-02-08 07:01:00,
2013-02-08 02:11:00,36.0,32.0,-100.00,NE,53,0.0,6.0,84,0.00,,,-99.99,,2013-02-08 07:11:00,
2013-02-08 02:22:00,33.0,28.0,-100.00,SW,235,1.0,6.0,82,0.00,,,-99.99,,2013-02-08 07:22:00,
2013-02-08 02:32:00,35.0,32.0,-100.00,NNW,341,0.0,6.0,84,0.00,,,-99.99,,2013-02-08 07:32:00,
2013-02-08 02:42:00,34.0,30.0,-100.00,SW,216,0.0,6.0,84,0.00,,,-99.99,,2013-02-08 07:42:00,
2013-02-08 02:52:00,36.0,32.0,-100.00,West,273,0.0,6.0,84,0.00,,,-99.99,,2013-02-08 07:52:00,
2013-02-08 03:01:00,36.0,32.0,-100.00,West,268,0.0,6.0,84,0.00,,,-99.99,,2013-02-08 08:01:00,
2013-02-08 03:11:00,36.0,32.0,-100.00,North,4,0.0,6.0,84,0.00,,,-99.99,,2013-02-08 08:11:00,
2013-02-08 03:22:00,36.0,32.0,-100.00,SW,221,0.0,6.0,85,0.00,,,-99.99,,2013-02-08 08:22:00,
2013-02-08 03:32:00,36.0,32.0,-100.00,NNE,15,0.0,6.0,85,0.00,,,-99.99,,2013-02-08 08:32:00,
2013-02-08 03:42:00,36.0,32.0,-100.00,NNW,333,0.0,6.0,85,0.00,,,-99.99,,2013-02-08 08:42:00,
2013-02-08 03:52:00,36.0,32.0,-100.00,North,355,0.0,6.0,85,0.00,,,-99.99,,2013-02-08 08:52:00,
2013-02-08 04:03:00,36.0,32.0,-100.00,West,266,0.0,6.0,85,0.00,,,-99.99,,2013-02-08 09:03:00,
2013-02-08 04:11:00,37.0,32.0,-100.00,North,1,1.0,6.0,86,0.00,,,-99.99,,2013-02-08 09:11:00,
2013-02-08 04:21:00,38.0,34.0,-100.00,NW,324,0.0,6.0,85,0.00,,,-99.99,,2013-02-08 09:21:00,
2013-02-08 04:32:00,39.0,34.0,-100.00,NNW,344,0.0,6.0,86,0.00,,,-99.99,,2013-02-08 09:32:00,
2013-02-08 04:42:00,38.0,34.0,-100.00,West,273,0.0,6.0,85,0.00,,,-99.99,,2013-02-08 09:42:00,
2013-02-08 04:52:00,37.0,32.0,-100.00,West,268,1.0,6.0,86,0.00,,,-99.99,,2013-02-08 09:52:00,
2013-02-08 05:01:00,38.0,34.0,-100.00,North,354,0.0,6.0,86,0.00,,,-99.99,,2013-02-08 10:01:00,
2013-02-08 05:12:00,39.0,34.0,-100.00,NW,310,1.0,6.0,88,0.00,,,-99.99,,2013-02-08 10:12:00,
2013-02-08 05:22:00,39.0,34.0,-100.00,East,100,0.0,6.0,88,0.00,,,-99.99,,2013-02-08 10:22:00,
2013-02-08 05:32:00,37.0,32.0,-100.00,ESE,122,0.0,6.0,85,0.00,,,-99.99,,2013-02-08 10:32:00,
2013-02-08 05:42:00,40.0,36.0,-100.00,NNW,337,0.0,6.0,86,0.00,,,-99.99,,2013-02-08 10:42:00,
2013-02-08 05:51:00,40.0,36.0,-100.00,North,355,0.0,6.0,86,0.00,,,-99.99,,2013-02-08 10:51:00,
2013-02-08 06:01:00,39.0,34.0,-100.00,NE,35,0.0,6.0,86,0.00,,,-99.99,,2013-02-08 11:01:00,
2013-02-08 06:11:00,36.0,32.0,-100.00,NNE,15,1.0,1.0,86,0.00,,,-99.99,,2013-02-08 11:11:00,
2013-02-08 06:21:00,37.0,32.0,-100.00,NW,312,1.0,1.0,84,0.00,,,-99.99,,2013-02-08 11:21:00,
2013-02-08 06:32:00,38.0,34.0,-100.00,SW,217,1.0,2.0,85,0.00,,,-99.99,,2013-02-08 11:32:00,
2013-02-08 06:42:00,39.0,34.0,-100.00,NW,313,1.0,2.0,85,0.00,,,-99.99,,2013-02-08 11:42:00,
2013-02-08 06:52:00,39.0,34.0,-100.00,South,187,1.0,2.0,85,1.14,,,-99.99,,2013-02-08 11:52:00,
2013-02-08 07:02:00,39.0,34.0,-100.00,South,187,0.0,2.0,84,0.00,,,-99.99,,2013-02-08 12:02:00,
2013-02-08 07:11:00,40.0,36.0,-100.00,SE,125,2.0,4.0,86,0.00,,,-99.99,,2013-02-08 12:11:00,
2013-02-08 07:22:00,40.0,36.0,-100.00,NNW,338,1.0,4.0,88,1.69,,,-99.99,,2013-02-08 12:22:00,
2013-02-08 07:33:00,40.0,36.0,-100.00,SW,231,1.0,4.0,88,6.22,,,-99.99,,2013-02-08 12:33:00,
2013-02-08 07:42:00,40.0,36.0,-100.00,WNW,286,0.0,4.0,89,5.67,,,-99.99,,2013-02-08 12:42:00,
2013-02-08 07:52:00,40.0,36.0,-100.00,WNW,303,0.0,4.0,89,5.67,,,-99.99,,2013-02-08 12:52:00,
2013-02-08 08:02:00,40.0,36.0,-100.00,SW,223,0.0,4.0,90,6.22,,,-99.99,,2013-02-08 13:02:00,
2013-02-08 08:12:00,40.0,36.0,-100.00,SW,231,0.0,4.0,91,5.12,,,-99.99,,2013-02-08 13:12:00,
2013-02-08 08:22:00,39.0,36.0,-100.00,WSW,237,0.0,4.0,91,1.69,,,-99.99,,2013-02-08 13:22:00,
2013-02-08 08:32:00,38.0,36.0,-100.00,WSW,238,0.0,4.0,93,2.83,,,-99.99,,2013-02-08 13:32:00,
2013-02-08 08:42:00,39.0,36.0,-100.00,West,262,0.0,4.0,93,1.69,,,-99.99,,2013-02-08 13:42:00,
2013-02-08 08:52:00,40.0,37.0,-100.00,NE,49,0.0,4.0,94,3.39,,,-99.99,,2013-02-08 13:52:00,
2013-02-08 09:02:00,39.0,37.0,-100.00,WSW,240,1.0,4.0,94,5.67,,,-99.99,,2013-02-08 14:02:00,
2013-02-08 09:11:00,39.0,36.0,-100.00,ENE,59,0.0,4.0,94,1.14,,,-99.99,,2013-02-08 14:11:00,
2013-02-08 09:22:00,40.0,37.0,-100.00,SSW,208,3.0,6.0,94,1.14,,,-99.99,,2013-02-08 14:22:00,
2013-02-08 09:32:00,41.0,39.0,-100.00,SSW,200,4.0,6.0,94,3.39,,,-99.99,,2013-02-08 14:32:00,
2013-02-08 09:42:00,41.0,39.0,-100.00,SW,235,7.0,10.0,95,0.00,,,-99.99,,2013-02-08 14:42:00,
2013-02-08 09:52:00,39.0,37.0,-100.00,WSW,240,7.0,10.0,94,2.83,,,-99.99,,2013-02-08 14:52:00,
2013-02-08 10:02:00,40.0,37.0,-100.00,SW,220,9.0,12.0,94,5.67,,,-99.99,,2013-02-08 15:02:00,
2013-02-08 10:12:00,41.0,39.0,-100.00,SW,216,7.0,12.0,94,0.00,,,-99.99,,2013-02-08 15:12:00,
2013-02-08 10:22:00,40.0,37.0,-100.00,SW,218,6.0,12.0,94,4.53,,,-99.99,,2013-02-08 15:22:00,
2013-02-08 10:32:00,39.0,36.0,-100.00,SW,223,10.0,14.0,94,6.22,,,-99.99,,2013-02-08 15:32:00,
2013-02-08 10:42:00,39.0,37.0,-100.00,WSW,241,9.0,14.0,95,6.22,,,-99.99,,2013-02-08 15:42:00,
2013-02-08 10:52:00,39.0,36.0,-100.00,SW,227,9.0,14.0,94,0.00,,,-99.99,,2013-02-08 15:52:00,
2013-02-08 11:02:00,38.0,36.0,-100.00,WSW,240,9.0,14.0,94,0.00,,,-99.99,,2013-02-08 16:02:00,
2013-02-08 11:11:00,38.0,36.0,-100.00,SSW,200,9.0,14.0,95,3.98,,,-99.99,,2013-02-08 16:11:00,
2013-02-08 11:22:00,37.0,34.0,-100.00,WSW,252,9.0,14.0,94,0.00,,,-99.99,,2013-02-08 16:22:00,
2013-02-08 11:32:00,37.0,34.0,-100.00,WSW,258,7.0,14.0,94,0.00,,,-99.99,,2013-02-08 16:32:00,
2013-02-08 11:42:00,36.0,34.0,-100.00,SW,218,11.0,14.0,94,0.00,,,-99.99,,2013-02-08 16:42:00,
2013-02-08 11:52:00,36.0,34.0,-100.00,SW,230,11.0,14.0,94,3.98,,,-99.99,,2013-02-08 16:52:00,
2013-02-08 12:04:00,36.0,34.0,-100.00,SW,235,9.0,14.0,94,5.12,,,-99.99,,2013-02-08 17:04:00,
2013-02-08 12:12:00,36.0,34.0,-100.00,WNW,285,7.0,14.0,94,4.53,,,-99.99,,2013-02-08 17:12:00,
2013-02-08 12:23:00,36.0,34.0,-100.00,SW,234,7.0,14.0,94,4.53,,,-99.99,,2013-02-08 17:23:00,
2013-02-08 12:33:00,36.0,34.0,-100.00,WSW,237,7.0,14.0,94,0.00,,,-99.99,,2013-02-08 17:33:00,
2013-02-08 12:42:00,34.0,32.0,-100.00,SW,235,10.0,14.0,93,3.98,,,-99.99,,2013-02-08 17:42:00,
2013-02-08 12:52:00,34.0,32.0,-100.00,SW,221,9.0,14.0,91,2.83,,,-99.99,,2013-02-08 17:52:00,
2013-02-08 13:02:00,35.0,32.0,-100.00,WSW,237,8.0,14.0,91,3.39,,,-99.99,,2013-02-08 18:02:00,
2013-02-08 13:12:00,34.0,32.0,-100.00,SW,228,11.0,14.0,90,3.39,,,-99.99,,2013-02-08 18:12:00,
2013-02-08 13:25:00,36.0,32.0,-100.00,SW,234,8.0,14.0,89,2.83,,,-99.99,,2013-02-08 18:25:00,
2013-02-08 13:35:00,32.0,30.0,-100.00,SW,227,11.0,14.0,90,2.28,,,-99.99,,2013-02-08 18:35:00,
2013-02-08 13:44:00,35.0,32.0,-100.00,SSW,210,11.0,14.0,90,2.83,,,-99.99,,2013-02-08 18:44:00,
2013-02-08 13:52:00,36.0,32.0,-100.00,SW,225,7.0,14.0,89,3.39,,,-99.99,,2013-02-08 18:52:00,
2013-02-08 14:02:00,36.0,32.0,-100.00,SW,214,11.0,14.0,88,2.83,,,-99.99,,2013-02-08 19:02:00,
2013-02-08 14:12:00,33.0,30.0,-100.00,SW,218,10.0,14.0,88,2.28,,,-99.99,,2013-02-08 19:12:00,
2013-02-08 14:22:00,32.0,30.0,-100.00,WSW,241,9.0,14.0,88,2.83,,,-99.99,,2013-02-08 19:22:00,
2013-02-08 14:32:00,33.0,30.0,-100.00,SW,217,7.0,14.0,88,2.83,,,-99.99,,2013-02-08 19:32:00,
2013-02-08 14:42:00,32.0,28.0,-100.00,SSW,197,7.0,14.0,85,2.83,,,-99.99,,2013-02-08 19:42:00,
2013-02-08 14:52:00,32.0,28.0,-100.00,South,184,9.0,14.0,86,1.69,,,-99.99,,2013-02-08 19:52:00,
2013-02-08 15:02:00,32.0,28.0,-100.00,SSE,166,7.0,14.0,85,2.83,,,-99.99,,2013-02-08 20:02:00,
2013-02-08 15:12:00,31.0,28.0,-100.00,WSW,238,6.0,14.0,84,2.28,,,-99.99,,2013-02-08 20:12:00,
2013-02-08 15:22:00,31.0,28.0,-100.00,SSW,194,10.0,14.0,84,2.28,,,-99.99,,2013-02-08 20:22:00,
2013-02-08 15:32:00,32.0,28.0,-100.00,SW,216,11.0,14.0,82,2.83,,,-99.99,,2013-02-08 20:32:00,
2013-02-08 15:42:00,31.0,27.0,-100.00,SW,214,9.0,14.0,82,2.28,,,-99.99,,2013-02-08 20:42:00,
2013-02-08 15:52:00,31.0,28.0,-100.00,WSW,245,7.0,14.0,82,2.28,,,-99.99,,2013-02-08 20:52:00,
2013-02-08 16:02:00,30.0,27.0,-100.00,SW,232,4.0,14.0,82,2.28,,,-99.99,,2013-02-08 21:02:00,
2013-02-08 16:12:00,30.0,27.0,-100.00,SSW,210,4.0,14.0,85,2.28,,,-99.99,,2013-02-08 21:12:00,
2013-02-08 16:22:00,30.0,27.0,-100.00,SW,223,6.0,14.0,85,2.83,,,-99.99,,2013-02-08 21:22:00,
2013-02-08 16:32:00,29.0,27.0,-100.00,SSE,162,5.0,14.0,86,2.28,,,-99.99,,2013-02-08 21:32:00,
2013-02-08 16:42:00,30.0,28.0,-100.00,WSW,251,4.0,14.0,86,0.55,,,-99.99,,2013-02-08 21:42:00,
2013-02-08 16:52:00,29.0,27.0,-100.00,WSW,237,4.0,14.0,86,10.20,,,-99.99,,2013-02-08 21:52:00,
2013-02-08 17:02:00,30.0,28.0,-100.00,WSW,241,5.0,14.0,89,1.69,,,-99.99,,2013-02-08 22:02:00,
2013-02-08 17:11:00,29.0,27.0,-100.00,WSW,247,6.0,14.0,91,1.69,,,-99.99,,2013-02-08 22:11:00,
2013-02-08 17:22:00,29.0,28.0,-100.00,SSW,196,4.0,14.0,93,1.14,,,-99.99,,2013-02-08 22:22:00,
2013-02-08 17:32:00,29.0,28.0,-100.00,SSW,201,3.0,14.0,93,0.00,,,-99.99,,2013-02-08 22:32:00,
2013-02-08 17:42:00,29.0,28.0,-100.00,West,278,5.0,14.0,94,0.00,,,-99.99,,2013-02-08 22:42:00,
2013-02-08 17:52:00,28.0,28.0,-100.00,WNW,296,6.0,14.0,94,1.14,,,-99.99,,2013-02-08 22:52:00,
2013-02-08 18:02:00,28.0,28.0,-100.00,SSW,210,3.0,14.0,94,0.00,,,-99.99,,2013-02-08 23:02:00,
2013-02-08 18:11:00,26.0,25.0,-100.00,WSW,258,3.0,14.0,91,1.69,,,-99.99,,2013-02-08 23:11:00,
2013-02-08 18:22:00,27.0,25.0,-100.00,SSW,200,4.0,14.0,89,1.14,,,-99.99,,2013-02-08 23:22:00,
2013-02-08 18:32:00,29.0,27.0,-100.00,SW,232,6.0,14.0,88,0.55,,,-99.99,,2013-02-08 23:32:00,
2013-02-08 18:42:00,27.0,23.0,-100.00,West,276,9.0,14.0,86,0.55,,,-99.99,,2013-02-08 23:42:00,
2013-02-08 18:52:00,28.0,25.0,-100.00,WNW,289,5.0,14.0,85,1.14,,,-99.99,,2013-02-08 23:52:00,
2013-02-08 19:02:00,27.0,23.0,-100.00,South,187,7.0,14.0,84,0.55,,,-99.99,,2013-02-09 00:02:00,
2013-02-08 19:12:00,26.0,23.0,-100.00,West,262,4.0,14.0,84,1.69,,,-99.99,,2013-02-09 00:12:00,
2013-02-08 19:22:00,28.0,25.0,-100.00,West,273,4.0,14.0,84,2.28,,,-99.99,,2013-02-09 00:22:00,
2013-02-08 19:32:00,28.0,25.0,-100.00,WNW,283,6.0,14.0,84,1.69,,,-99.99,,2013-02-09 00:32:00,
2013-02-08 19:42:00,26.0,23.0,-100.00,WSW,240,7.0,14.0,84,1.69,,,-99.99,,2013-02-09 00:42:00,
2013-02-08 19:52:00,25.0,21.0,-100.00,WSW,241,6.0,14.0,84,1.14,,,-99.99,,2013-02-09 00:52:00,
2013-02-08 20:02:00,27.0,23.0,-100.00,NNW,343,3.0,14.0,84,1.69,,,-99.99,,2013-02-09 01:02:00,
2013-02-08 20:12:00,27.0,23.0,-100.00,SW,216,6.0,14.0,84,2.28,,,-99.99,,2013-02-09 01:12:00,
2013-02-08 20:22:00,27.0,23.0,-100.00,SW,227,5.0,14.0,84,1.69,,,-99.99,,2013-02-09 01:22:00,
2013-02-08 20:32:00,27.0,23.0,-100.00,SSW,211,4.0,14.0,84,1.69,,,-99.99,,2013-02-09 01:32:00,
2013-02-08 20:42:00,27.0,23.0,-100.00,West,272,5.0,14.0,84,1.69,,,-99.99,,2013-02-09 01:42:00,
2013-02-08 20:52:00,28.0,25.0,-100.00,WNW,289,5.0,14.0,85,1.69,,,-99.99,,2013-02-09 01:52:00,
2013-02-08 21:01:00,28.0,25.0,-100.00,West,272,5.0,14.0,84,0.00,,,-99.99,,2013-02-09 02:01:00,
2013-02-08 21:11:00,28.0,25.0,-100.00,SSW,194,6.0,14.0,84,7.95,,,-99.99,,2013-02-09 02:11:00,
2013-02-08 21:22:00,29.0,25.0,-100.00,WNW,286,6.0,14.0,84,0.00,,,-99.99,,2013-02-09 02:22:00,
2013-02-08 21:32:00,29.0,25.0,-100.00,SW,223,7.0,14.0,84,0.55,,,-99.99,,2013-02-09 02:32:00,
2013-02-08 21:42:00,28.0,25.0,-100.00,WSW,251,6.0,14.0,84,1.69,,,-99.99,,2013-02-09 02:42:00,
2013-02-08 21:52:00,28.0,25.0,-100.00,West,269,5.0,14.0,84,0.55,,,-99.99,,2013-02-09 02:52:00,
2013-02-08 22:02:00,29.0,25.0,-100.00,WSW,254,3.0,14.0,85,2.83,,,-99.99,,2013-02-09 03:02:00,
2013-02-08 22:11:00,29.0,27.0,-100.00,SW,221,4.0,14.0,85,0.55,,,-99.99,,2013-02-09 03:11:00,
2013-02-08 22:22:00,29.0,25.0,-100.00,West,275,6.0,14.0,85,1.69,,,-99.99,,2013-02-09 03:22:00,
2013-02-08 22:32:00,28.0,25.0,-100.00,West,264,6.0,14.0,85,2.83,,,-99.99,,2013-02-09 03:32:00,
2013-02-08 22:42:00,28.0,25.0,-100.00,West,264,6.0,14.0,85,2.83,,,-99.99,,2013-02-09 03:42:00,
2013-02-08 22:52:00,28.0,25.0,-100.00,SSW,200,6.0,14.0,84,0.55,,,-99.99,,2013-02-09 03:52:00,
2013-02-08 23:03:00,29.0,27.0,-100.00,SW,232,7.0,14.0,85,0.55,,,-99.99,,2013-02-09 04:03:00,
2013-02-08 23:12:00,28.0,25.0,-100.00,SW,223,6.0,14.0,84,0.55,,,-99.99,,2013-02-09 04:12:00,
2013-02-08 23:23:00,28.0,25.0,-100.00,SW,228,3.0,14.0,84,0.55,,,-99.99,,2013-02-09 04:23:00,
2013-02-08 23:32:00,29.0,25.0,-100.00,WNW,286,4.0,14.0,84,0.00,,,-99.99,,2013-02-09 04:32:00,
2013-02-08 23:42:00,29.0,25.0,-100.00,WNW,292,5.0,14.0,84,0.55,,,-99.99,,2013-02-09 04:42:00,
2013-02-08 23:52:00,28.0,25.0,-100.00,SW,224,4.0,14.0,82,1.69,,,-99.99,,2013-02-09 04:52:00,